Terminal Aerodrome Forecast
Issued by NWS Miami, FL

Home | Current Version | Previous Version | Text Only | Print | Product List | Glossary On
Versions: 1 2 3 4 5 6 7 8 9 10 11 12 13 14 15 16 17 18 19 20 21 22 23 24 25 26 27
000
FTUS42 KMFL 242320
TAFPBI
TAF
KPBI 242320Z 2500/2524 23018G30KT P6SM -SHRA VCTS SCT035CB BKN050
      BKN060
      TEMPO 2500/2501 VRB25G40KT 2SM TSRA SCT015 BKN030CB OVC040
     FM250100 21012KT P6SM VCSH SCT040 BKN080 BKN100
     FM251300 24016G25KT P6SM -SHRA VCTS SCT030CB BKN050 OVC080
     FM252200 29012G20KT P6SM SCT030 SCT080 BKN250=

USA.gov is the U.S. government's official web portal to all federal, state and local government web resources and services.